ORMM/BSR METAR and TAF weather

Enter ICAO airport designator
Station Type Date Time Source
ORMM METAR 2019/08/26 07:00 UTC NOAA

ORMM 260700Z 27007KT CAVOK 43/09 Q1002 NOSIG


Station Type Date Time Source
ORMM Decoded METAR 2019/08/26 07:00 UTC NOAA

Station name not available
Aug 26, 2019 - 03:00 AM EDT / 2019.08.26 0700 UTC
Wind: from the W (270 degrees) at 8 MPH (7 KT):0
Visibility: greater than 7 mile(s):0
Temperature: 109 F (43 C)
Dew Point: 48 F (9 C)
Relative Humidity: 13%
Pressure (altimeter): 29.59 in. Hg (1002 hPa)
ob: ORMM 260700Z 27007KT CAVOK 43/09 Q1002 NOSIG
cycle: 7

Station Type Date Time Source
ORMM TAF 2019/08/26 06:25 UTC NOAA

TAF ORMM 260400Z 2606/2706 VRB03KT 8000 NSC
TEMPO 2606/2608 24008KT

Example: see airport list